sensor_id;sensor_type;location;lat;lon;timestamp;P1;durP1;ratioP1;P2;durP2;ratioP2
47523;SDS011;33253;42.144;25.884;2022-11-23T00:02:15;8.63;;;3.75;;
47523;SDS011;33253;42.144;25.884;2022-11-23T00:04:40;8.65;;;3.20;;
47523;SDS011;33253;42.144;25.884;2022-11-23T00:07:05;8.15;;;2.90;;
47523;SDS011;33253;42.144;25.884;2022-11-23T00:09:31;5.95;;;2.28;;
47523;SDS011;33253;42.144;25.884;2022-11-23T00:11:56;9.20;;;2.17;;
47523;SDS011;33253;42.144;25.884;2022-11-23T00:14:22;4.70;;;2.10;;
47523;SDS011;33253;42.144;25.884;2022-11-23T00:16:47;7.22;;;2.55;;
47523;SDS011;33253;42.144;25.884;2022-11-23T00:19:13;7.75;;;2.25;;
47523;SDS011;33253;42.144;25.884;2022-11-23T00:21:38;7.22;;;2.20;;
47523;SDS011;33253;42.144;25.884;2022-11-23T00:24:04;7.30;;;2.13;;
47523;SDS011;33253;42.144;25.884;2022-11-23T00:26:29;5.35;;;1.95;;
47523;SDS011;33253;42.144;25.884;2022-11-23T00:28:55;7.20;;;2.15;;
47523;SDS011;33253;42.144;25.884;2022-11-23T00:31:20;5.57;;;2.15;;
47523;SDS011;33253;42.144;25.884;2022-11-23T00:33:52;4.38;;;1.80;;
47523;SDS011;33253;42.144;25.884;2022-11-23T00:36:19;5.97;;;2.00;;
47523;SDS011;33253;42.144;25.884;2022-11-23T00:38:46;6.10;;;1.88;;
47523;SDS011;33253;42.144;25.884;2022-11-23T00:41:14;3.70;;;1.63;;
47523;SDS011;33253;42.144;25.884;2022-11-23T00:43:42;4.82;;;1.63;;
47523;SDS011;33253;42.144;25.884;2022-11-23T00:46:15;3.13;;;1.35;;
47523;SDS011;33253;42.144;25.884;2022-11-23T00:48:46;4.13;;;1.70;;
47523;SDS011;33253;42.144;25.884;2022-11-23T00:51:13;4.85;;;1.80;;
47523;SDS011;33253;42.144;25.884;2022-11-23T00:53:40;4.30;;;2.15;;
47523;SDS011;33253;42.144;25.884;2022-11-23T00:56:06;5.60;;;1.67;;
47523;SDS011;33253;42.144;25.884;2022-11-23T00:58:32;6.88;;;1.88;;
47523;SDS011;33253;42.144;25.884;2022-11-23T01:01:20;3.83;;;1.92;;
47523;SDS011;33253;42.144;25.884;2022-11-23T01:03:46;4.05;;;1.75;;
47523;SDS011;33253;42.144;25.884;2022-11-23T01:06:17;4.03;;;1.80;;
47523;SDS011;33253;42.144;25.884;2022-11-23T01:08:49;6.15;;;1.70;;
47523;SDS011;33253;42.144;25.884;2022-11-23T01:11:15;4.80;;;1.70;;
47523;SDS011;33253;42.144;25.884;2022-11-23T01:13:42;7.78;;;1.88;;
47523;SDS011;33253;42.144;25.884;2022-11-23T01:16:14;4.60;;;1.92;;
47523;SDS011;33253;42.144;25.884;2022-11-23T01:18:41;6.28;;;2.13;;
47523;SDS011;33253;42.144;25.884;2022-11-23T01:21:06;6.28;;;1.85;;
47523;SDS011;33253;42.144;25.884;2022-11-23T01:23:32;4.05;;;2.08;;
47523;SDS011;33253;42.144;25.884;2022-11-23T01:26:02;5.68;;;2.00;;
47523;SDS011;33253;42.144;25.884;2022-11-23T01:28:29;3.17;;;1.73;;
47523;SDS011;33253;42.144;25.884;2022-11-23T01:30:54;4.13;;;1.73;;
47523;SDS011;33253;42.144;25.884;2022-11-23T01:33:20;4.95;;;1.90;;
47523;SDS011;33253;42.144;25.884;2022-11-23T01:35:45;4.35;;;1.70;;
47523;SDS011;33253;42.144;25.884;2022-11-23T01:38:11;2.95;;;1.67;;
47523;SDS011;33253;42.144;25.884;2022-11-23T01:40:40;4.95;;;1.95;;
47523;SDS011;33253;42.144;25.884;2022-11-23T01:43:09;6.28;;;1.98;;
47523;SDS011;33253;42.144;25.884;2022-11-23T01:45:41;4.15;;;1.63;;
47523;SDS011;33253;42.144;25.884;2022-11-23T01:48:17;5.95;;;2.05;;
47523;SDS011;33253;42.144;25.884;2022-11-23T01:50:47;5.68;;;2.08;;
47523;SDS011;33253;42.144;25.884;2022-11-23T01:53:15;4.78;;;2.17;;
47523;SDS011;33253;42.144;25.884;2022-11-23T01:55:42;6.13;;;2.10;;
47523;SDS011;33253;42.144;25.884;2022-11-23T01:58:10;4.78;;;2.05;;
47523;SDS011;33253;42.144;25.884;2022-11-23T02:00:38;5.68;;;2.30;;
47523;SDS011;33253;42.144;25.884;2022-11-23T02:03:03;4.28;;;1.83;;
47523;SDS011;33253;42.144;25.884;2022-11-23T02:05:37;4.75;;;2.45;;
47523;SDS011;33253;42.144;25.884;2022-11-23T02:08:06;5.63;;;2.45;;
47523;SDS011;33253;42.144;25.884;2022-11-23T02:10:33;10.23;;;2.47;;
47523;SDS011;33253;42.144;25.884;2022-11-23T02:13:04;6.38;;;2.20;;
47523;SDS011;33253;42.144;25.884;2022-11-23T02:15:32;4.85;;;1.85;;
47523;SDS011;33253;42.144;25.884;2022-11-23T02:17:59;5.28;;;2.55;;
47523;SDS011;33253;42.144;25.884;2022-11-23T02:20:28;5.82;;;2.55;;
47523;SDS011;33253;42.144;25.884;2022-11-23T02:28:18;6.55;;;2.33;;
47523;SDS011;33253;42.144;25.884;2022-11-23T02:30:48;8.38;;;2.15;;
47523;SDS011;33253;42.144;25.884;2022-11-23T02:33:15;6.22;;;2.30;;
47523;SDS011;33253;42.144;25.884;2022-11-23T02:35:52;5.22;;;1.95;;
47523;SDS011;33253;42.144;25.884;2022-11-23T02:38:18;6.45;;;2.15;;
47523;SDS011;33253;42.144;25.884;2022-11-23T02:40:45;4.82;;;2.35;;
47523;SDS011;33253;42.144;25.884;2022-11-23T02:43:11;5.53;;;2.28;;
47523;SDS011;33253;42.144;25.884;2022-11-23T02:45:42;4.88;;;2.35;;
47523;SDS011;33253;42.144;25.884;2022-11-23T02:48:26;4.22;;;1.95;;
47523;SDS011;33253;42.144;25.884;2022-11-23T02:50:52;4.70;;;2.15;;
47523;SDS011;33253;42.144;25.884;2022-11-23T02:53:17;4.75;;;2.28;;
47523;SDS011;33253;42.144;25.884;2022-11-23T02:55:43;8.98;;;2.97;;
47523;SDS011;33253;42.144;25.884;2022-11-23T02:58:09;5.45;;;2.25;;
47523;SDS011;33253;42.144;25.884;2022-11-23T03:00:34;6.90;;;2.55;;
47523;SDS011;33253;42.144;25.884;2022-11-23T03:03:00;6.93;;;2.55;;
47523;SDS011;33253;42.144;25.884;2022-11-23T03:05:27;6.63;;;2.50;;
47523;SDS011;33253;42.144;25.884;2022-11-23T03:07:52;5.55;;;2.08;;
47523;SDS011;33253;42.144;25.884;2022-11-23T03:10:18;10.40;;;2.40;;
47523;SDS011;33253;42.144;25.884;2022-11-23T03:12:43;6.40;;;2.13;;
47523;SDS011;33253;42.144;25.884;2022-11-23T03:15:09;6.65;;;2.30;;
47523;SDS011;33253;42.144;25.884;2022-11-23T03:17:35;7.07;;;2.70;;
47523;SDS011;33253;42.144;25.884;2022-11-23T03:20:01;7.65;;;2.35;;
47523;SDS011;33253;42.144;25.884;2022-11-23T03:22:27;7.00;;;3.25;;
47523;SDS011;33253;42.144;25.884;2022-11-23T03:24:52;12.05;;;2.90;;
47523;SDS011;33253;42.144;25.884;2022-11-23T03:27:18;7.03;;;2.30;;
47523;SDS011;33253;42.144;25.884;2022-11-23T03:29:43;5.88;;;2.35;;
47523;SDS011;33253;42.144;25.884;2022-11-23T03:32:09;9.93;;;3.13;;
47523;SDS011;33253;42.144;25.884;2022-11-23T03:34:34;8.80;;;2.88;;
47523;SDS011;33253;42.144;25.884;2022-11-23T03:37:00;10.25;;;3.40;;
47523;SDS011;33253;42.144;25.884;2022-11-23T03:39:25;10.13;;;3.15;;
47523;SDS011;33253;42.144;25.884;2022-11-23T03:41:51;10.10;;;3.47;;
47523;SDS011;33253;42.144;25.884;2022-11-23T03:44:16;13.15;;;3.40;;
47523;SDS011;33253;42.144;25.884;2022-11-23T03:46:42;11.88;;;3.92;;
47523;SDS011;33253;42.144;25.884;2022-11-23T03:49:07;10.18;;;3.30;;
47523;SDS011;33253;42.144;25.884;2022-11-23T03:51:33;11.18;;;3.00;;
47523;SDS011;33253;42.144;25.884;2022-11-23T03:53:58;7.20;;;2.90;;
47523;SDS011;33253;42.144;25.884;2022-11-23T03:56:23;7.65;;;3.05;;
47523;SDS011;33253;42.144;25.884;2022-11-23T03:58:49;5.57;;;2.70;;
47523;SDS011;33253;42.144;25.884;2022-11-23T04:01:14;9.32;;;3.05;;
47523;SDS011;33253;42.144;25.884;2022-11-23T04:03:40;9.23;;;2.80;;
47523;SDS011;33253;42.144;25.884;2022-11-23T04:06:05;9.50;;;3.72;;
47523;SDS011;33253;42.144;25.884;2022-11-23T04:08:31;10.38;;;3.38;;
47523;SDS011;33253;42.144;25.884;2022-11-23T04:10:57;11.75;;;3.55;;
47523;SDS011;33253;42.144;25.884;2022-11-23T04:13:23;10.10;;;3.30;;
47523;SDS011;33253;42.144;25.884;2022-11-23T04:15:49;9.73;;;3.55;;
47523;SDS011;33253;42.144;25.884;2022-11-23T04:18:14;10.23;;;3.55;;
47523;SDS011;33253;42.144;25.884;2022-11-23T04:20:40;9.45;;;3.95;;
47523;SDS011;33253;42.144;25.884;2022-11-23T04:23:05;13.73;;;3.42;;
47523;SDS011;33253;42.144;25.884;2022-11-23T04:25:31;11.77;;;3.53;;
47523;SDS011;33253;42.144;25.884;2022-11-23T04:27:56;8.38;;;3.03;;
47523;SDS011;33253;42.144;25.884;2022-11-23T04:30:21;11.23;;;3.72;;
47523;SDS011;33253;42.144;25.884;2022-11-23T04:32:47;11.00;;;4.00;;
47523;SDS011;33253;42.144;25.884;2022-11-23T04:35:12;8.55;;;3.53;;
47523;SDS011;33253;42.144;25.884;2022-11-23T04:37:38;8.63;;;3.38;;
47523;SDS011;33253;42.144;25.884;2022-11-23T04:40:04;15.00;;;4.05;;
47523;SDS011;33253;42.144;25.884;2022-11-23T04:42:30;13.30;;;4.18;;
47523;SDS011;33253;42.144;25.884;2022-11-23T04:44:55;13.13;;;3.80;;
47523;SDS011;33253;42.144;25.884;2022-11-23T04:47:22;15.68;;;4.57;;
47523;SDS011;33253;42.144;25.884;2022-11-23T04:49:48;14.25;;;3.95;;
47523;SDS011;33253;42.144;25.884;2022-11-23T04:52:14;8.93;;;3.25;;
47523;SDS011;33253;42.144;25.884;2022-11-23T04:54:40;15.43;;;4.85;;
47523;SDS011;33253;42.144;25.884;2022-11-23T04:57:05;8.13;;;3.90;;
47523;SDS011;33253;42.144;25.884;2022-11-23T04:59:31;11.00;;;3.97;;
47523;SDS011;33253;42.144;25.884;2022-11-23T05:01:56;12.65;;;4.18;;
47523;SDS011;33253;42.144;25.884;2022-11-23T05:04:22;10.68;;;3.80;;
47523;SDS011;33253;42.144;25.884;2022-11-23T05:06:47;12.00;;;4.53;;
47523;SDS011;33253;42.144;25.884;2022-11-23T05:09:12;10.07;;;4.50;;
47523;SDS011;33253;42.144;25.884;2022-11-23T05:11:38;11.60;;;4.63;;
47523;SDS011;33253;42.144;25.884;2022-11-23T05:14:03;11.35;;;4.20;;
47523;SDS011;33253;42.144;25.884;2022-11-23T05:16:29;8.60;;;3.83;;
47523;SDS011;33253;42.144;25.884;2022-11-23T05:18:54;11.48;;;3.58;;
47523;SDS011;33253;42.144;25.884;2022-11-23T05:21:20;8.65;;;3.85;;
47523;SDS011;33253;42.144;25.884;2022-11-23T05:23:45;10.20;;;3.55;;
47523;SDS011;33253;42.144;25.884;2022-11-23T05:26:11;8.02;;;3.90;;
47523;SDS011;33253;42.144;25.884;2022-11-23T05:28:36;11.20;;;4.40;;
47523;SDS011;33253;42.144;25.884;2022-11-23T05:31:02;10.30;;;4.50;;
47523;SDS011;33253;42.144;25.884;2022-11-23T05:33:29;17.17;;;5.82;;
47523;SDS011;33253;42.144;25.884;2022-11-23T05:35:54;17.10;;;5.18;;
47523;SDS011;33253;42.144;25.884;2022-11-23T05:38:20;12.10;;;4.80;;
47523;SDS011;33253;42.144;25.884;2022-11-23T05:40:45;11.65;;;5.57;;
47523;SDS011;33253;42.144;25.884;2022-11-23T05:43:11;8.20;;;4.35;;
47523;SDS011;33253;42.144;25.884;2022-11-23T05:45:37;13.10;;;5.43;;
47523;SDS011;33253;42.144;25.884;2022-11-23T05:48:03;12.23;;;5.10;;
47523;SDS011;33253;42.144;25.884;2022-11-23T05:50:29;8.35;;;5.00;;
47523;SDS011;33253;42.144;25.884;2022-11-23T05:52:55;14.02;;;5.25;;
47523;SDS011;33253;42.144;25.884;2022-11-23T05:55:21;13.68;;;5.05;;
47523;SDS011;33253;42.144;25.884;2022-11-23T05:57:46;9.63;;;5.65;;
47523;SDS011;33253;42.144;25.884;2022-11-23T06:00:12;10.85;;;7.25;;
47523;SDS011;33253;42.144;25.884;2022-11-23T06:02:38;12.18;;;5.50;;
47523;SDS011;33253;42.144;25.884;2022-11-23T06:05:04;11.02;;;3.90;;
47523;SDS011;33253;42.144;25.884;2022-11-23T06:07:32;11.32;;;3.85;;
47523;SDS011;33253;42.144;25.884;2022-11-23T06:09:58;7.00;;;2.63;;
47523;SDS011;33253;42.144;25.884;2022-11-23T06:12:24;10.68;;;3.22;;
47523;SDS011;33253;42.144;25.884;2022-11-23T06:14:51;10.18;;;3.00;;
47523;SDS011;33253;42.144;25.884;2022-11-23T06:17:17;12.57;;;4.18;;
47523;SDS011;33253;42.144;25.884;2022-11-23T06:19:43;12.13;;;3.50;;
47523;SDS011;33253;42.144;25.884;2022-11-23T06:22:09;6.78;;;2.92;;
47523;SDS011;33253;42.144;25.884;2022-11-23T06:24:35;10.80;;;2.90;;
47523;SDS011;33253;42.144;25.884;2022-11-23T06:27:00;6.82;;;2.13;;
47523;SDS011;33253;42.144;25.884;2022-11-23T06:29:27;9.13;;;3.05;;
47523;SDS011;33253;42.144;25.884;2022-11-23T06:31:52;8.65;;;2.50;;
47523;SDS011;33253;42.144;25.884;2022-11-23T06:34:18;6.30;;;2.38;;
47523;SDS011;33253;42.144;25.884;2022-11-23T06:36:44;6.40;;;2.35;;
47523;SDS011;33253;42.144;25.884;2022-11-23T06:39:09;7.72;;;2.58;;
47523;SDS011;33253;42.144;25.884;2022-11-23T06:41:34;9.23;;;3.03;;
47523;SDS011;33253;42.144;25.884;2022-11-23T06:44:00;8.13;;;2.85;;
47523;SDS011;33253;42.144;25.884;2022-11-23T06:46:26;8.68;;;3.22;;
47523;SDS011;33253;42.144;25.884;2022-11-23T06:48:51;6.20;;;2.70;;
47523;SDS011;33253;42.144;25.884;2022-11-23T06:51:18;6.50;;;2.08;;
47523;SDS011;33253;42.144;25.884;2022-11-23T06:53:43;6.45;;;2.10;;
47523;SDS011;33253;42.144;25.884;2022-11-23T06:56:09;6.05;;;1.40;;
47523;SDS011;33253;42.144;25.884;2022-11-23T06:58:54;2.70;;;1.10;;
47523;SDS011;33253;42.144;25.884;2022-11-23T07:01:20;4.88;;;1.40;;
47523;SDS011;33253;42.144;25.884;2022-11-23T07:03:45;3.85;;;1.10;;
47523;SDS011;33253;42.144;25.884;2022-11-23T07:06:11;5.13;;;1.50;;
47523;SDS011;33253;42.144;25.884;2022-11-23T07:08:36;3.58;;;0.90;;
47523;SDS011;33253;42.144;25.884;2022-11-23T07:11:08;3.90;;;1.63;;
47523;SDS011;33253;42.144;25.884;2022-11-23T07:13:35;4.43;;;1.20;;
47523;SDS011;33253;42.144;25.884;2022-11-23T07:16:01;4.53;;;1.42;;
47523;SDS011;33253;42.144;25.884;2022-11-23T07:18:26;4.30;;;1.20;;
47523;SDS011;33253;42.144;25.884;2022-11-23T07:20:52;3.25;;;1.27;;
47523;SDS011;33253;42.144;25.884;2022-11-23T07:23:17;4.53;;;1.42;;
47523;SDS011;33253;42.144;25.884;2022-11-23T07:25:43;4.30;;;1.40;;
47523;SDS011;33253;42.144;25.884;2022-11-23T07:28:09;7.07;;;1.92;;
47523;SDS011;33253;42.144;25.884;2022-11-23T07:30:37;8.45;;;5.63;;
47523;SDS011;33253;42.144;25.884;2022-11-23T07:33:04;16.23;;;8.52;;
47523;SDS011;33253;42.144;25.884;2022-11-23T07:35:32;20.85;;;10.30;;
47523;SDS011;33253;42.144;25.884;2022-11-23T07:37:58;17.05;;;10.52;;
47523;SDS011;33253;42.144;25.884;2022-11-23T07:40:23;18.42;;;12.38;;
47523;SDS011;33253;42.144;25.884;2022-11-23T07:42:49;16.17;;;11.45;;
47523;SDS011;33253;42.144;25.884;2022-11-23T07:45:14;15.88;;;11.48;;
47523;SDS011;33253;42.144;25.884;2022-11-23T07:47:40;19.50;;;11.68;;
47523;SDS011;33253;42.144;25.884;2022-11-23T07:50:06;19.13;;;11.18;;
47523;SDS011;33253;42.144;25.884;2022-11-23T07:52:34;19.98;;;12.57;;
47523;SDS011;33253;42.144;25.884;2022-11-23T07:55:00;18.17;;;12.45;;
47523;SDS011;33253;42.144;25.884;2022-11-23T07:57:26;17.92;;;12.02;;
47523;SDS011;33253;42.144;25.884;2022-11-23T07:59:52;17.10;;;12.50;;
47523;SDS011;33253;42.144;25.884;2022-11-23T08:02:17;20.75;;;13.27;;
47523;SDS011;33253;42.144;25.884;2022-11-23T08:04:42;20.02;;;14.30;;
47523;SDS011;33253;42.144;25.884;2022-11-23T08:07:08;20.48;;;14.73;;
47523;SDS011;33253;42.144;25.884;2022-11-23T08:09:33;21.75;;;15.02;;
47523;SDS011;33253;42.144;25.884;2022-11-23T08:11:59;21.40;;;15.85;;
47523;SDS011;33253;42.144;25.884;2022-11-23T08:14:24;25.85;;;16.25;;
47523;SDS011;33253;42.144;25.884;2022-11-23T08:16:50;21.63;;;15.73;;
47523;SDS011;33253;42.144;25.884;2022-11-23T08:19:16;21.90;;;15.43;;
47523;SDS011;33253;42.144;25.884;2022-11-23T08:21:42;21.92;;;15.23;;
47523;SDS011;33253;42.144;25.884;2022-11-23T08:24:08;26.52;;;17.27;;
47523;SDS011;33253;42.144;25.884;2022-11-23T08:26:33;26.35;;;17.63;;
47523;SDS011;33253;42.144;25.884;2022-11-23T08:28:59;31.52;;;18.80;;
47523;SDS011;33253;42.144;25.884;2022-11-23T08:31:24;29.80;;;20.42;;
47523;SDS011;33253;42.144;25.884;2022-11-23T08:33:50;26.58;;;16.80;;
47523;SDS011;33253;42.144;25.884;2022-11-23T08:36:15;25.30;;;17.35;;
47523;SDS011;33253;42.144;25.884;2022-11-23T08:38:41;25.95;;;17.27;;
47523;SDS011;33253;42.144;25.884;2022-11-23T08:41:06;26.65;;;17.63;;
47523;SDS011;33253;42.144;25.884;2022-11-23T08:43:32;29.13;;;17.55;;
47523;SDS011;33253;42.144;25.884;2022-11-23T08:45:59;24.40;;;16.90;;
47523;SDS011;33253;42.144;25.884;2022-11-23T08:48:25;29.38;;;18.75;;
47523;SDS011;33253;42.144;25.884;2022-11-23T08:50:51;28.45;;;18.40;;
47523;SDS011;33253;42.144;25.884;2022-11-23T08:53:17;26.98;;;17.05;;
47523;SDS011;33253;42.144;25.884;2022-11-23T08:55:43;29.25;;;17.38;;
47523;SDS011;33253;42.144;25.884;2022-11-23T08:58:09;25.10;;;17.77;;
47523;SDS011;33253;42.144;25.884;2022-11-23T09:00:34;25.73;;;18.00;;
47523;SDS011;33253;42.144;25.884;2022-11-23T09:03:00;25.30;;;18.95;;
47523;SDS011;33253;42.144;25.884;2022-11-23T09:05:27;27.00;;;18.63;;
47523;SDS011;33253;42.144;25.884;2022-11-23T09:07:53;29.17;;;19.15;;
47523;SDS011;33253;42.144;25.884;2022-11-23T09:10:25;23.77;;;16.80;;
47523;SDS011;33253;42.144;25.884;2022-11-23T09:12:50;24.20;;;17.02;;
47523;SDS011;33253;42.144;25.884;2022-11-23T09:15:16;22.90;;;17.63;;
47523;SDS011;33253;42.144;25.884;2022-11-23T09:17:42;24.42;;;17.65;;
47523;SDS011;33253;42.144;25.884;2022-11-23T09:20:08;28.30;;;18.20;;
47523;SDS011;33253;42.144;25.884;2022-11-23T09:22:34;27.45;;;17.13;;
47523;SDS011;33253;42.144;25.884;2022-11-23T09:25:00;27.08;;;17.60;;
47523;SDS011;33253;42.144;25.884;2022-11-23T09:27:26;28.15;;;18.52;;
47523;SDS011;33253;42.144;25.884;2022-11-23T09:29:51;27.45;;;18.27;;
47523;SDS011;33253;42.144;25.884;2022-11-23T09:32:17;24.73;;;18.00;;
47523;SDS011;33253;42.144;25.884;2022-11-23T09:34:43;24.30;;;17.02;;
47523;SDS011;33253;42.144;25.884;2022-11-23T09:37:09;23.75;;;17.70;;
47523;SDS011;33253;42.144;25.884;2022-11-23T09:39:37;23.83;;;17.50;;
47523;SDS011;33253;42.144;25.884;2022-11-23T09:52:51;29.80;;;18.60;;
47523;SDS011;33253;42.144;25.884;2022-11-23T09:55:23;28.13;;;18.27;;
47523;SDS011;33253;42.144;25.884;2022-11-23T09:57:53;30.85;;;18.55;;
47523;SDS011;33253;42.144;25.884;2022-11-23T10:00:24;29.90;;;19.05;;
47523;SDS011;33253;42.144;25.884;2022-11-23T10:02:51;30.08;;;19.90;;
47523;SDS011;33253;42.144;25.884;2022-11-23T10:05:19;28.80;;;19.30;;
47523;SDS011;33253;42.144;25.884;2022-11-23T10:07:58;28.50;;;18.40;;
47523;SDS011;33253;42.144;25.884;2022-11-23T10:13:44;27.48;;;18.35;;
47523;SDS011;33253;42.144;25.884;2022-11-23T10:24:17;29.42;;;18.73;;
47523;SDS011;33253;42.144;25.884;2022-11-23T10:26:45;26.15;;;17.50;;
47523;SDS011;33253;42.144;25.884;2022-11-23T10:29:32;25.50;;;17.63;;
47523;SDS011;33253;42.144;25.884;2022-11-23T10:32:00;20.92;;;15.07;;
47523;SDS011;33253;42.144;25.884;2022-11-23T10:37:13;26.05;;;16.83;;
47523;SDS011;33253;42.144;25.884;2022-11-23T10:39:40;26.67;;;18.17;;
47523;SDS011;33253;42.144;25.884;2022-11-23T10:42:13;20.83;;;15.55;;
47523;SDS011;33253;42.144;25.884;2022-11-23T10:44:46;23.15;;;16.00;;
47523;SDS011;33253;42.144;25.884;2022-11-23T10:50:19;22.55;;;14.48;;
47523;SDS011;33253;42.144;25.884;2022-11-23T10:52:50;20.50;;;14.88;;
47523;SDS011;33253;42.144;25.884;2022-11-23T10:55:46;22.70;;;15.73;;
47523;SDS011;33253;42.144;25.884;2022-11-23T10:58:28;44.92;;;30.33;;
47523;SDS011;33253;42.144;25.884;2022-11-23T11:00:59;36.53;;;25.50;;
47523;SDS011;33253;42.144;25.884;2022-11-23T11:03:30;33.63;;;25.13;;
47523;SDS011;33253;42.144;25.884;2022-11-23T11:05:57;22.70;;;16.75;;
47523;SDS011;33253;42.144;25.884;2022-11-23T11:08:25;25.38;;;17.15;;
47523;SDS011;33253;42.144;25.884;2022-11-23T11:16:04;22.55;;;16.27;;
47523;SDS011;33253;42.144;25.884;2022-11-23T11:18:42;23.85;;;15.82;;
47523;SDS011;33253;42.144;25.884;2022-11-23T11:21:29;24.20;;;16.35;;
47523;SDS011;33253;42.144;25.884;2022-11-23T11:24:14;56.42;;;38.47;;
47523;SDS011;33253;42.144;25.884;2022-11-23T11:26:52;26.55;;;17.40;;
47523;SDS011;33253;42.144;25.884;2022-11-23T11:29:38;27.30;;;19.02;;
47523;SDS011;33253;42.144;25.884;2022-11-23T11:42:49;24.67;;;16.73;;
47523;SDS011;33253;42.144;25.884;2022-11-23T11:45:25;24.95;;;17.05;;
47523;SDS011;33253;42.144;25.884;2022-11-23T11:50:35;25.92;;;19.23;;
47523;SDS011;33253;42.144;25.884;2022-11-23T11:53:09;45.85;;;41.22;;
47523;SDS011;33253;42.144;25.884;2022-11-23T11:58:09;29.65;;;22.50;;
47523;SDS011;33253;42.144;25.884;2022-11-23T12:00:36;41.63;;;29.77;;
47523;SDS011;33253;42.144;25.884;2022-11-23T12:03:09;24.30;;;17.77;;
47523;SDS011;33253;42.144;25.884;2022-11-23T12:05:57;23.95;;;17.40;;
47523;SDS011;33253;42.144;25.884;2022-11-23T12:08:39;23.00;;;16.02;;
47523;SDS011;33253;42.144;25.884;2022-11-23T12:11:12;23.35;;;15.38;;
47523;SDS011;33253;42.144;25.884;2022-11-23T12:13:39;26.30;;;14.63;;
47523;SDS011;33253;42.144;25.884;2022-11-23T12:18:48;22.13;;;15.15;;
47523;SDS011;33253;42.144;25.884;2022-11-23T12:21:42;24.30;;;14.90;;
47523;SDS011;33253;42.144;25.884;2022-11-23T12:24:19;21.55;;;15.48;;
47523;SDS011;33253;42.144;25.884;2022-11-23T12:26:52;22.98;;;15.43;;
47523;SDS011;33253;42.144;25.884;2022-11-23T12:35:25;19.50;;;14.20;;
47523;SDS011;33253;42.144;25.884;2022-11-23T12:38:19;22.77;;;13.95;;
47523;SDS011;33253;42.144;25.884;2022-11-23T12:40:59;21.73;;;14.82;;
47523;SDS011;33253;42.144;25.884;2022-11-23T12:49:14;18.17;;;12.48;;
47523;SDS011;33253;42.144;25.884;2022-11-23T12:57:30;17.65;;;11.30;;
47523;SDS011;33253;42.144;25.884;2022-11-23T13:00:12;18.38;;;11.65;;
47523;SDS011;33253;42.144;25.884;2022-11-23T13:13:45;19.55;;;12.93;;
47523;SDS011;33253;42.144;25.884;2022-11-23T13:21:59;14.48;;;9.82;;
47523;SDS011;33253;42.144;25.884;2022-11-23T13:40:21;16.45;;;10.95;;
47523;SDS011;33253;42.144;25.884;2022-11-23T13:42:52;13.88;;;10.80;;
47523;SDS011;33253;42.144;25.884;2022-11-23T13:50:38;15.10;;;11.20;;
47523;SDS011;33253;42.144;25.884;2022-11-23T13:55:46;18.55;;;10.38;;
47523;SDS011;33253;42.144;25.884;2022-11-23T14:00:57;19.50;;;9.95;;
47523;SDS011;33253;42.144;25.884;2022-11-23T14:08:59;18.73;;;10.63;;
47523;SDS011;33253;42.144;25.884;2022-11-23T14:11:29;22.67;;;14.30;;
47523;SDS011;33253;42.144;25.884;2022-11-23T14:14:19;19.40;;;13.83;;
47523;SDS011;33253;42.144;25.884;2022-11-23T14:24:57;18.55;;;13.73;;
47523;SDS011;33253;42.144;25.884;2022-11-23T14:33:13;18.92;;;12.85;;
47523;SDS011;33253;42.144;25.884;2022-11-23T14:36:02;21.30;;;14.35;;
47523;SDS011;33253;42.144;25.884;2022-11-23T14:38:55;21.73;;;13.15;;
47523;SDS011;33253;42.144;25.884;2022-11-23T14:41:37;23.05;;;13.50;;
47523;SDS011;33253;42.144;25.884;2022-11-23T14:44:07;31.50;;;13.67;;
47523;SDS011;33253;42.144;25.884;2022-11-23T14:46:36;19.75;;;13.65;;
47523;SDS011;33253;42.144;25.884;2022-11-23T14:49:25;28.30;;;14.13;;
47523;SDS011;33253;42.144;25.884;2022-11-23T14:51:51;20.58;;;14.35;;
47523;SDS011;33253;42.144;25.884;2022-11-23T14:54:17;22.05;;;15.40;;
47523;SDS011;33253;42.144;25.884;2022-11-23T14:56:43;23.70;;;15.10;;
47523;SDS011;33253;42.144;25.884;2022-11-23T14:59:31;25.23;;;14.07;;
47523;SDS011;33253;42.144;25.884;2022-11-23T15:02:04;19.57;;;12.63;;
47523;SDS011;33253;42.144;25.884;2022-11-23T15:04:44;17.23;;;12.18;;
47523;SDS011;33253;42.144;25.884;2022-11-23T15:07:58;18.27;;;12.95;;
47523;SDS011;33253;42.144;25.884;2022-11-23T15:13:29;20.45;;;11.45;;
47523;SDS011;33253;42.144;25.884;2022-11-23T15:15:57;14.20;;;11.73;;
47523;SDS011;33253;42.144;25.884;2022-11-23T15:18:26;21.75;;;11.23;;
47523;SDS011;33253;42.144;25.884;2022-11-23T15:20:53;19.23;;;11.63;;
47523;SDS011;33253;42.144;25.884;2022-11-23T15:23:22;17.77;;;12.52;;
47523;SDS011;33253;42.144;25.884;2022-11-23T15:25:57;21.17;;;12.10;;
47523;SDS011;33253;42.144;25.884;2022-11-23T15:28:26;22.40;;;12.27;;
47523;SDS011;33253;42.144;25.884;2022-11-23T15:30:54;18.27;;;11.65;;
47523;SDS011;33253;42.144;25.884;2022-11-23T15:33:20;22.17;;;11.48;;
47523;SDS011;33253;42.144;25.884;2022-11-23T15:35:46;27.92;;;11.88;;
47523;SDS011;33253;42.144;25.884;2022-11-23T15:38:13;27.50;;;12.38;;
47523;SDS011;33253;42.144;25.884;2022-11-23T15:40:40;43.05;;;12.52;;
47523;SDS011;33253;42.144;25.884;2022-11-23T15:43:11;38.30;;;13.10;;
47523;SDS011;33253;42.144;25.884;2022-11-23T15:45:58;29.35;;;13.85;;
47523;SDS011;33253;42.144;25.884;2022-11-23T15:48:27;19.55;;;12.60;;
47523;SDS011;33253;42.144;25.884;2022-11-23T15:50:59;24.65;;;12.95;;
47523;SDS011;33253;42.144;25.884;2022-11-23T15:53:27;24.15;;;12.40;;
47523;SDS011;33253;42.144;25.884;2022-11-23T15:55:58;23.52;;;11.07;;
47523;SDS011;33253;42.144;25.884;2022-11-23T15:58:26;21.30;;;9.85;;
47523;SDS011;33253;42.144;25.884;2022-11-23T16:00:54;16.67;;;8.98;;
47523;SDS011;33253;42.144;25.884;2022-11-23T16:03:31;21.25;;;10.02;;
47523;SDS011;33253;42.144;25.884;2022-11-23T16:08:36;30.25;;;17.02;;
47523;SDS011;33253;42.144;25.884;2022-11-23T16:11:04;37.13;;;18.45;;
47523;SDS011;33253;42.144;25.884;2022-11-23T16:13:42;25.77;;;18.45;;
47523;SDS011;33253;42.144;25.884;2022-11-23T16:16:17;24.75;;;15.02;;
47523;SDS011;33253;42.144;25.884;2022-11-23T16:18:47;38.28;;;21.60;;
47523;SDS011;33253;42.144;25.884;2022-11-23T16:21:17;28.88;;;15.80;;
47523;SDS011;33253;42.144;25.884;2022-11-23T16:26:10;28.92;;;16.35;;
47523;SDS011;33253;42.144;25.884;2022-11-23T16:28:37;26.05;;;17.35;;
47523;SDS011;33253;42.144;25.884;2022-11-23T16:31:27;26.90;;;16.00;;
47523;SDS011;33253;42.144;25.884;2022-11-23T16:33:54;26.70;;;18.13;;
47523;SDS011;33253;42.144;25.884;2022-11-23T16:36:20;31.63;;;18.25;;
47523;SDS011;33253;42.144;25.884;2022-11-23T16:38:46;26.02;;;17.38;;
47523;SDS011;33253;42.144;25.884;2022-11-23T16:41:11;24.95;;;16.27;;
47523;SDS011;33253;42.144;25.884;2022-11-23T16:43:37;25.27;;;15.57;;
47523;SDS011;33253;42.144;25.884;2022-11-23T16:46:02;23.02;;;12.30;;
47523;SDS011;33253;42.144;25.884;2022-11-23T16:48:36;42.15;;;23.15;;
47523;SDS011;33253;42.144;25.884;2022-11-23T16:51:05;21.65;;;14.50;;
47523;SDS011;33253;42.144;25.884;2022-11-23T16:53:34;30.77;;;20.33;;
47523;SDS011;33253;42.144;25.884;2022-11-23T16:56:00;20.25;;;15.07;;